Time;durP1;ratioP1;P1;durP2;ratioP2;P2;SDS_P1;SDS_P2;PMS_P1;PMS_P2;Temp;Humidity;BMP_temperature;BMP_pressure;BME280_temperature;BME280_humidity;BME280_pressure;Samples;Min_cycle;Max_cycle;Signal;HPM_P1;HPM_P2
2024/03/11 00:01:40;;;;;;;23.00;20.60;;;12.80;66.50;;;;;;4977487;28;20524;-80
2024/03/11 00:04:24;;;;;;;22.05;19.75;;;12.80;66.50;;;;;;4969961;28;20038;-80
2024/03/11 00:07:09;;;;;;;22.20;19.88;;;12.80;66.50;;;;;;4978035;28;20045;-81
2024/03/11 00:09:54;;;;;;;22.80;20.40;;;12.80;66.50;;;;;;4977311;28;20589;-80
2024/03/11 00:12:53;;;;;;;22.55;20.15;;;12.80;66.40;;;;;;4980546;28;20093;-81
2024/03/11 00:15:39;;;;;;;20.52;18.33;;;12.80;66.40;;;;;;4974182;28;20099;-80
2024/03/11 00:18:24;;;;;;;21.42;19.20;;;12.80;66.40;;;;;;4979551;28;20042;-81
2024/03/11 00:21:08;;;;;;;20.30;18.13;;;12.70;66.20;;;;;;4975951;28;20053;-80
2024/03/11 00:23:53;;;;;;;20.60;18.52;;;12.80;66.40;;;;;;4981799;28;20069;-81
2024/03/11 00:26:37;;;;;;;20.33;18.33;;;12.70;66.20;;;;;;4977204;28;20129;-80
2024/03/11 00:29:22;;;;;;;20.60;18.35;;;12.70;66.10;;;;;;4973368;28;20659;-80
2024/03/11 00:32:07;;;;;;;20.45;18.35;;;12.70;66.10;;;;;;4976582;28;20110;-80
2024/03/11 00:34:52;;;;;;;20.83;18.58;;;12.70;66.10;;;;;;4966673;28;20140;-79
2024/03/11 00:37:37;;;;;;;21.30;19.17;;;12.70;66.10;;;;;;4980117;28;20080;-79
2024/03/11 00:40:24;;;;;;;21.58;19.27;;;12.70;66.10;;;;;;4993912;28;20056;-80
2024/03/11 00:43:09;;;;;;;19.25;17.35;;;12.60;65.90;;;;;;4987562;28;20410;-80
2024/03/11 00:45:53;;;;;;;20.95;18.05;;;12.60;65.90;;;;;;4983184;28;20037;-80
2024/03/11 00:48:38;;;;;;;19.67;17.67;;;12.60;65.90;;;;;;4979831;28;20165;-80
2024/03/11 00:51:22;;;;;;;20.98;18.75;;;12.60;65.80;;;;;;4976294;28;20042;-79
2024/03/11 00:54:07;;;;;;;18.90;16.92;;;12.60;65.90;;;;;;4974960;28;20316;-80
2024/03/11 00:56:51;;;;;;;19.02;17.08;;;12.60;65.80;;;;;;4977838;28;20033;-80
2024/03/11 00:59:36;;;;;;;19.20;17.30;;;12.60;65.80;;;;;;4977781;28;20041;-80
2024/03/11 01:02:24;;;;;;;19.50;17.50;;;12.60;65.80;;;;;;4988414;28;20097;-80
2024/03/11 01:05:09;;;;;;;18.25;16.40;;;12.60;65.80;;;;;;4975085;28;20069;-80
2024/03/11 01:07:53;;;;;;;18.85;16.52;;;12.60;65.80;;;;;;4980709;28;20557;-80
2024/03/11 01:10:38;;;;;;;19.27;17.13;;;12.60;65.80;;;;;;4984351;28;20045;-80
2024/03/11 01:13:22;;;;;;;19.75;16.33;;;12.50;65.60;;;;;;4973846;28;20474;-80
2024/03/11 01:16:07;;;;;;;19.83;17.77;;;12.50;65.50;;;;;;4976155;28;20662;-80
2024/03/11 01:18:53;;;;;;;20.08;17.77;;;12.50;65.50;;;;;;4980100;28;20413;-80
2024/03/11 01:21:38;;;;;;;19.20;17.20;;;12.50;65.50;;;;;;4978528;28;20845;-80
2024/03/11 01:24:24;;;;;;;19.60;17.50;;;12.50;65.50;;;;;;4979981;28;20573;-80
2024/03/11 01:27:11;;;;;;;20.00;17.90;;;12.50;65.50;;;;;;4979199;28;20076;-80
2024/03/11 01:29:55;;;;;;;18.08;16.17;;;12.50;65.50;;;;;;4985359;28;20038;-80
2024/03/11 01:32:41;;;;;;;20.27;18.20;;;12.40;65.30;;;;;;4965187;28;20421;-80
2024/03/11 01:35:27;;;;;;;18.90;16.90;;;12.40;65.30;;;;;;4978582;28;20383;-79
2024/03/11 01:38:12;;;;;;;18.30;16.50;;;12.40;65.30;;;;;;4976520;28;20097;-80
2024/03/11 01:40:57;;;;;;;18.10;16.20;;;12.40;65.30;;;;;;4981141;28;20037;-80
2024/03/11 01:43:41;;;;;;;17.67;15.77;;;12.40;65.30;;;;;;4980460;28;20046;-80
2024/03/11 01:46:27;;;;;;;18.88;16.17;;;12.40;65.30;;;;;;4974132;28;20353;-80
2024/03/11 01:49:12;;;;;;;19.08;17.08;;;12.30;65.10;;;;;;4970507;28;20045;-80
2024/03/11 01:51:57;;;;;;;18.83;16.83;;;12.30;65.10;;;;;;4979282;28;20096;-80
2024/03/11 01:54:43;;;;;;;18.58;16.10;;;12.30;65.10;;;;;;4977841;28;20045;-80
2024/03/11 01:57:27;;;;;;;17.20;15.38;;;12.30;65.10;;;;;;4981650;28;20096;-80
2024/03/11 02:00:12;;;;;;;16.98;15.27;;;12.30;65.20;;;;;;4984082;28;20627;-80
2024/03/11 02:02:57;;;;;;;18.20;16.17;;;12.20;65.00;;;;;;4986374;28;20060;-80
2024/03/11 02:05:43;;;;;;;18.35;16.42;;;12.30;65.70;;;;;;4973203;28;20089;-80
2024/03/11 02:08:27;;;;;;;17.27;15.48;;;12.20;65.00;;;;;;4983702;28;20481;-80
2024/03/11 02:11:12;;;;;;;16.42;14.73;;;12.20;65.00;;;;;;4988923;28;20049;-80
2024/03/11 02:13:59;;;;;;;16.90;15.15;;;12.20;65.00;;;;;;4988820;28;20093;-82
2024/03/11 02:16:43;;;;;;;17.00;15.20;;;12.10;64.90;;;;;;4998541;28;20065;-82
2024/03/11 02:19:28;;;;;;;18.42;15.45;;;12.10;64.90;;;;;;4981139;28;20598;-81
2024/03/11 02:22:13;;;;;;;17.85;14.63;;;12.10;64.90;;;;;;4982277;28;20500;-81
2024/03/11 02:24:59;;;;;;;17.50;15.40;;;12.10;64.90;;;;;;4975588;28;20046;-79
2024/03/11 02:27:45;;;;;;;16.15;14.45;;;12.10;64.90;;;;;;4979476;28;20041;-81
2024/03/11 02:30:29;;;;;;;16.90;15.10;;;12.10;64.90;;;;;;4982669;28;20128;-81
2024/03/11 02:33:14;;;;;;;17.42;15.63;;;12.00;64.70;;;;;;4988767;28;20104;-81
2024/03/11 02:35:58;;;;;;;17.27;15.57;;;12.00;64.70;;;;;;4972376;28;20557;-81
2024/03/11 02:38:43;;;;;;;17.00;14.80;;;12.00;64.70;;;;;;4976879;28;20037;-81
2024/03/11 02:41:29;;;;;;;17.75;15.32;;;12.00;64.80;;;;;;4980304;28;20065;-81
2024/03/11 02:44:13;;;;;;;17.65;15.80;;;12.00;64.80;;;;;;4981223;28;21040;-81
2024/03/11 02:46:58;;;;;;;17.35;15.40;;;12.00;64.80;;;;;;4972215;28;20108;-81
2024/03/11 02:49:42;;;;;;;18.42;16.55;;;12.00;64.80;;;;;;4982397;28;20512;-80
2024/03/11 02:52:27;;;;;;;18.77;16.55;;;12.00;64.80;;;;;;4970917;28;20178;-80
2024/03/11 02:55:14;;;;;;;18.42;16.45;;;12.00;64.80;;;;;;4979248;28;20500;-81
2024/03/11 02:58:00;;;;;;;17.73;15.90;;;12.00;64.70;;;;;;4984535;28;20045;-80
2024/03/11 03:00:44;;;;;;;18.60;16.58;;;11.90;64.60;;;;;;4993199;28;20092;-80
2024/03/11 03:03:29;;;;;;;18.80;15.75;;;12.00;64.80;;;;;;4980968;28;20049;-81
2024/03/11 03:06:17;;;;;;;20.38;16.88;;;11.90;64.60;;;;;;4981248;28;20053;-81
2024/03/11 03:09:02;;;;;;;18.10;16.17;;;11.90;64.60;;;;;;4984041;28;20037;-81
2024/03/11 03:11:46;;;;;;;18.40;16.10;;;11.90;64.60;;;;;;4975779;28;20154;-80
2024/03/11 03:14:31;;;;;;;18.85;16.00;;;11.90;65.10;;;;;;4969770;28;20038;-78
2024/03/11 03:17:15;;;;;;;18.80;16.35;;;11.90;64.60;;;;;;4983509;28;20033;-79
2024/03/11 03:20:00;;;;;;;19.02;17.00;;;12.00;64.70;;;;;;4984064;28;20092;-81
2024/03/11 03:22:45;;;;;;;18.65;16.67;;;11.90;64.60;;;;;;5000533;28;20118;-81
2024/03/11 03:25:33;;;;;;;20.98;16.95;;;11.90;64.60;;;;;;4976837;28;20109;-80
2024/03/11 03:28:17;;;;;;;19.80;17.80;;;11.90;64.60;;;;;;4981176;28;20433;-80
2024/03/11 03:31:04;;;;;;;18.20;16.17;;;11.90;64.50;;;;;;4985011;28;20104;-79
2024/03/11 03:33:50;;;;;;;18.83;16.33;;;11.90;64.60;;;;;;4989490;28;20065;-81
2024/03/11 03:36:35;;;;;;;19.77;16.58;;;11.90;64.60;;;;;;4981902;28;20126;-81
2024/03/11 03:39:20;;;;;;;19.77;16.70;;;11.90;64.50;;;;;;4967397;28;20045;-80
2024/03/11 03:42:05;;;;;;;20.25;17.55;;;11.90;64.50;;;;;;4970965;28;20054;-81
2024/03/11 03:44:49;;;;;;;20.65;18.20;;;11.90;64.60;;;;;;4976090;28;20117;-81
2024/03/11 03:47:33;;;;;;;19.73;16.70;;;11.90;64.60;;;;;;4966043;28;20089;-82
2024/03/11 03:50:19;;;;;;;18.63;16.60;;;11.80;64.40;;;;;;4985599;28;20516;-81
2024/03/11 03:53:04;;;;;;;20.88;18.17;;;11.90;64.60;;;;;;4976903;28;20045;-81
2024/03/11 03:55:49;;;;;;;21.73;17.98;;;11.80;64.40;;;;;;4986444;28;20036;-81
2024/03/11 03:58:36;;;;;;;20.25;18.08;;;11.80;64.40;;;;;;4983746;28;20045;-82
2024/03/11 04:01:23;;;;;;;20.45;17.23;;;11.80;64.40;;;;;;4982864;28;20109;-81
2024/03/11 04:04:08;;;;;;;21.35;18.40;;;11.80;64.40;;;;;;4979517;28;20546;-82
2024/03/11 04:06:52;;;;;;;19.58;17.38;;;11.80;64.90;;;;;;4995843;28;20070;-82
2024/03/11 04:09:38;;;;;;;20.35;18.10;;;11.80;64.40;;;;;;4976466;28;20033;-82
2024/03/11 04:12:22;;;;;;;20.20;17.38;;;11.80;64.40;;;;;;4985546;28;20613;-81
2024/03/11 04:15:12;;;;;;;20.27;17.90;;;11.80;64.40;;;;;;4979224;28;20097;-81
2024/03/11 04:17:57;;;;;;;20.85;18.55;;;11.80;64.40;;;;;;4986386;28;20125;-81
2024/03/11 04:20:42;;;;;;;19.52;17.10;;;11.80;64.40;;;;;;4970434;28;20046;-81
2024/03/11 04:23:27;;;;;;;20.75;18.00;;;11.80;64.40;;;;;;4996927;28;20089;-81
2024/03/11 04:26:12;;;;;;;20.13;18.02;;;11.70;64.20;;;;;;4974708;28;20097;-81
2024/03/11 04:28:58;;;;;;;20.70;18.17;;;11.70;64.20;;;;;;4986698;28;20033;-81
2024/03/11 04:31:44;;;;;;;19.30;17.25;;;11.70;64.20;;;;;;4980826;28;20414;-82
2024/03/11 04:34:29;;;;;;;20.13;18.02;;;11.70;64.20;;;;;;4985154;28;20096;-81
2024/03/11 04:37:14;;;;;;;19.70;17.15;;;11.70;64.20;;;;;;4984073;28;20104;-81
2024/03/11 04:39:59;;;;;;;20.02;17.85;;;11.70;64.20;;;;;;4974285;28;20076;-82
2024/03/11 04:42:43;;;;;;;20.60;17.45;;;11.70;64.20;;;;;;4983060;28;20097;-82
2024/03/11 04:45:28;;;;;;;22.05;17.80;;;11.70;64.20;;;;;;4982080;28;20150;-81
2024/03/11 04:48:13;;;;;;;21.67;18.05;;;11.70;64.20;;;;;;4974395;28;20077;-81
2024/03/11 04:51:02;;;;;;;22.58;17.75;;;11.70;64.20;;;;;;4981979;28;20093;-81
2024/03/11 04:53:48;;;;;;;21.35;17.77;;;11.70;64.20;;;;;;4979915;28;20113;-81
2024/03/11 04:56:34;;;;;;;22.52;18.85;;;11.70;64.80;;;;;;4983304;28;20037;-80
2024/03/11 04:59:18;;;;;;;22.40;18.73;;;11.70;64.20;;;;;;4989046;28;20049;-80
2024/03/11 05:02:03;;;;;;;22.55;18.95;;;11.70;64.20;;;;;;4990962;28;20414;-81
2024/03/11 05:04:48;;;;;;;23.85;19.75;;;11.60;64.00;;;;;;4984772;28;20102;-82
2024/03/11 05:07:33;;;;;;;25.58;20.90;;;11.70;64.20;;;;;;4987162;28;20088;-82
2024/03/11 05:10:18;;;;;;;24.23;19.73;;;11.60;64.10;;;;;;4990404;28;20132;-82
2024/03/11 05:13:05;;;;;;;24.38;19.98;;;11.60;64.10;;;;;;4976132;28;20046;-82
2024/03/11 05:15:50;;;;;;;24.90;21.13;;;11.60;64.00;;;;;;4989482;28;20080;-81
2024/03/11 05:18:35;;;;;;;26.90;22.33;;;11.60;64.00;;;;;;4983656;28;20041;-81
2024/03/11 05:21:19;;;;;;;28.33;22.73;;;11.60;64.00;;;;;;4979218;28;20825;-81
2024/03/11 05:24:04;;;;;;;30.02;22.05;;;11.60;64.00;;;;;;4982914;28;20049;-81
2024/03/11 05:26:50;;;;;;;32.15;24.52;;;11.60;64.10;;;;;;4970243;28;20057;-82
2024/03/11 05:29:35;;;;;;;27.98;22.65;;;11.60;64.10;;;;;;4974494;28;20041;-82
2024/03/11 05:32:19;;;;;;;31.38;24.02;;;11.60;64.10;;;;;;4983578;28;20073;-82
2024/03/11 05:35:04;;;;;;;33.22;23.85;;;11.60;64.10;;;;;;4988937;28;20037;-82
2024/03/11 05:37:49;;;;;;;29.23;23.15;;;11.50;63.90;;;;;;4987951;28;20638;-82
2024/03/11 05:40:33;;;;;;;33.65;24.90;;;11.60;64.10;;;;;;4981813;28;20109;-83
2024/03/11 05:43:18;;;;;;;30.35;24.10;;;11.60;64.10;;;;;;4973309;28;20520;-85
2024/03/11 05:46:02;;;;;;;31.90;23.80;;;11.50;64.00;;;;;;4984391;28;20033;-84
2024/03/11 05:48:47;;;;;;;31.90;23.15;;;11.50;64.00;;;;;;4978777;28;20058;-84
2024/03/11 05:51:34;;;;;;;34.10;25.08;;;11.50;64.00;;;;;;4982558;28;20041;-84
2024/03/11 05:54:19;;;;;;;33.97;25.92;;;11.50;64.00;;;;;;4979497;28;20096;-83
2024/03/11 05:57:08;;;;;;;34.45;25.50;;;11.50;64.00;;;;;;4964098;28;20973;-83
2024/03/11 05:59:53;;;;;;;34.25;25.65;;;11.50;64.00;;;;;;4970862;28;20152;-83
2024/03/11 06:02:38;;;;;;;31.83;25.63;;;11.40;63.90;;;;;;4970381;28;20276;-83
2024/03/11 06:05:23;;;;;;;34.83;25.20;;;11.40;63.90;;;;;;4977297;28;20046;-82
2024/03/11 06:08:08;;;;;;;32.35;24.38;;;11.40;63.90;;;;;;4971807;28;20681;-84
2024/03/11 06:10:54;;;;;;;33.30;26.85;;;11.40;63.90;;;;;;4983903;28;20045;-83
2024/03/11 06:13:38;;;;;;;32.72;25.60;;;11.40;63.90;;;;;;4980489;28;20057;-83
2024/03/11 06:16:24;;;;;;;31.50;24.30;;;11.40;64.00;;;;;;4979396;28;20174;-83
2024/03/11 06:19:14;;;;;;;35.05;26.23;;;11.40;64.00;;;;;;4974708;28;20454;-83
2024/03/11 06:21:59;;;;;;;32.35;24.73;;;11.40;64.00;;;;;;4960998;28;20608;-83
2024/03/11 06:24:44;;;;;;;31.58;24.08;;;11.40;64.00;;;;;;4977928;28;20116;-83
2024/03/11 06:27:28;;;;;;;36.70;26.02;;;11.40;64.00;;;;;;4969704;28;20508;-84
2024/03/11 06:30:13;;;;;;;33.97;25.17;;;11.40;64.10;;;;;;4977563;28;20149;-83
2024/03/11 06:32:59;;;;;;;34.35;26.58;;;11.40;64.10;;;;;;4971523;28;20045;-83
2024/03/11 06:35:44;;;;;;;33.25;25.55;;;11.40;64.10;;;;;;4976769;28;20057;-81
2024/03/11 06:38:29;;;;;;;34.63;26.00;;;11.30;63.90;;;;;;4963027;28;20058;-83
2024/03/11 06:41:18;;;;;;;36.55;26.30;;;11.40;64.10;;;;;;4980871;28;20571;-83
2024/03/11 06:44:02;;;;;;;35.78;26.25;;;11.40;64.10;;;;;;4969273;28;20126;-84
2024/03/11 06:46:47;;;;;;;35.28;25.55;;;11.30;63.90;;;;;;4976029;28;20041;-79
2024/03/11 06:49:32;;;;;;;35.30;24.98;;;11.30;63.90;;;;;;4977572;28;20034;-82
2024/03/11 06:52:18;;;;;;;26.17;18.13;;;11.30;63.90;;;;;;4969791;28;20045;-80
2024/03/11 06:55:04;;;;;;;25.65;19.52;;;11.30;64.20;;;;;;4969974;28;20410;-83
2024/03/11 06:57:49;;;;;;;29.83;18.95;;;11.40;65.00;;;;;;4968741;28;20053;-82
2024/03/11 07:00:33;;;;;;;33.67;23.08;;;11.40;65.40;;;;;;4975524;28;20050;-81
2024/03/11 07:03:18;;;;;;;31.90;22.83;;;11.50;65.80;;;;;;4988950;28;20205;-80
2024/03/11 07:06:04;;;;;;;31.92;23.73;;;11.50;66.00;;;;;;4981806;28;20032;-79
2024/03/11 07:08:50;;;;;;;31.80;24.48;;;11.60;66.30;;;;;;4970947;28;20041;-80
2024/03/11 07:11:34;;;;;;;34.22;24.40;;;11.60;66.40;;;;;;4965935;28;20050;-80
2024/03/11 07:14:19;;;;;;;35.22;23.58;;;11.60;66.40;;;;;;4967904;28;20088;-78
2024/03/11 07:17:04;;;;;;;44.35;25.88;;;11.60;66.40;;;;;;4966626;28;20121;-79
2024/03/11 07:19:49;;;;;;;40.17;26.98;;;11.60;66.70;;;;;;4973646;28;21087;-79
2024/03/11 07:22:38;;;;;;;40.22;24.90;;;11.60;67.00;;;;;;4967811;28;20130;-79
2024/03/11 07:25:23;;;;;;;46.00;26.75;;;11.60;67.10;;;;;;4982448;28;20048;-80
2024/03/11 07:28:08;;;;;;;34.85;24.02;;;11.60;67.20;;;;;;4968397;28;20108;-82
2024/03/11 07:30:53;;;;;;;39.22;26.08;;;11.70;67.40;;;;;;4972518;28;20473;-78
2024/03/11 07:33:39;;;;;;;40.85;27.58;;;11.70;67.50;;;;;;4974291;28;20056;-79
2024/03/11 07:36:24;;;;;;;38.15;25.63;;;11.70;67.60;;;;;;4962879;28;20053;-78
2024/03/11 07:39:10;;;;;;;37.15;25.33;;;11.70;67.60;;;;;;4960799;28;20047;-79
2024/03/11 07:41:55;;;;;;;38.55;26.67;;;11.70;67.60;;;;;;4970810;28;20049;-78
2024/03/11 07:44:39;;;;;;;40.90;25.15;;;11.70;67.70;;;;;;4973362;28;20049;-80
2024/03/11 07:47:24;;;;;;;44.10;26.15;;;11.70;67.70;;;;;;4968102;28;20677;-80
2024/03/11 07:50:13;;;;;;;39.33;24.58;;;11.70;67.70;;;;;;4972316;28;20116;-79
2024/03/11 07:52:58;;;;;;;37.17;24.02;;;11.70;67.70;;;;;;4971585;28;20068;-79
2024/03/11 07:55:43;;;;;;;38.13;24.60;;;11.70;67.60;;;;;;4973769;28;20470;-79
2024/03/11 07:58:29;;;;;;;39.38;25.08;;;11.60;67.40;;;;;;4967076;28;20207;-78
2024/03/11 08:01:13;;;;;;;32.75;25.00;;;11.70;67.60;;;;;;4968201;28;20077;-78
2024/03/11 08:03:58;;;;;;;35.03;24.70;;;11.70;67.50;;;;;;4965980;28;20037;-79
2024/03/11 08:06:43;;;;;;;34.90;24.33;;;11.70;67.50;;;;;;4969793;28;20559;-78
2024/03/11 08:09:28;;;;;;;34.67;23.52;;;11.70;67.50;;;;;;4966440;28;20330;-78
2024/03/11 08:12:12;;;;;;;33.25;25.02;;;11.70;67.40;;;;;;4966304;28;20211;-78
2024/03/11 08:14:57;;;;;;;33.08;23.70;;;11.80;67.60;;;;;;4972489;28;20085;-78
2024/03/11 08:17:44;;;;;;;34.13;24.35;;;11.80;67.50;;;;;;4975385;28;20533;-78
2024/03/11 08:20:28;;;;;;;32.75;23.52;;;11.80;67.40;;;;;;4972738;28;20329;-79
2024/03/11 08:23:13;;;;;;;32.78;24.05;;;11.80;67.30;;;;;;4961926;28;20486;-79
2024/03/11 08:25:57;;;;;;;32.42;22.77;;;11.80;67.20;;;;;;4971841;28;20116;-79
2024/03/11 08:28:43;;;;;;;32.22;23.70;;;11.80;67.20;;;;;;4961914;28;20181;-79
2024/03/11 08:31:28;;;;;;;30.77;23.10;;;11.80;67.60;;;;;;4971873;28;20049;-78
2024/03/11 08:34:12;;;;;;;32.75;23.55;;;11.90;67.20;;;;;;4966938;28;20053;-78
2024/03/11 08:36:56;;;;;;;31.75;23.50;;;11.90;67.10;;;;;;4966770;28;20066;-78
2024/03/11 08:39:41;;;;;;;28.92;23.63;;;11.90;67.00;;;;;;4967516;28;20038;-79
2024/03/11 08:42:26;;;;;;;30.50;22.20;;;12.00;67.00;;;;;;4976342;28;20101;-81
2024/03/11 08:45:11;;;;;;;29.95;22.98;;;12.00;66.90;;;;;;4966399;28;20040;-80
2024/03/11 08:47:56;;;;;;;29.90;23.25;;;12.10;67.00;;;;;;4966514;28;20049;-80
2024/03/11 08:50:40;;;;;;;29.95;23.17;;;12.10;66.80;;;;;;4977499;28;20426;-78
2024/03/11 08:53:26;;;;;;;33.85;23.58;;;12.20;66.90;;;;;;4973064;28;20100;-78
2024/03/11 08:56:11;;;;;;;30.10;21.05;;;12.20;66.80;;;;;;4975298;28;20143;-78
2024/03/11 08:58:56;;;;;;;27.33;21.60;;;12.30;66.80;;;;;;4974324;28;20072;-79
2024/03/11 09:01:42;;;;;;;29.10;21.10;;;12.30;67.00;;;;;;4973027;28;20057;-80
2024/03/11 09:04:29;;;;;;;28.20;20.70;;;12.40;66.80;;;;;;4985284;28;20189;-79
2024/03/11 09:07:15;;;;;;;24.60;20.27;;;12.40;66.70;;;;;;4972819;28;20049;-78
2024/03/11 09:09:59;;;;;;;29.83;22.80;;;12.40;66.60;;;;;;4974971;28;20405;-78
2024/03/11 09:12:45;;;;;;;30.23;21.17;;;12.50;66.70;;;;;;4968398;28;20468;-78
2024/03/11 09:15:29;;;;;;;25.90;20.20;;;12.50;66.60;;;;;;4976791;28;20065;-79
2024/03/11 09:18:15;;;;;;;26.05;20.48;;;12.50;66.50;;;;;;4966915;28;20112;-78
2024/03/11 09:21:00;;;;;;;25.90;20.30;;;12.60;66.60;;;;;;4975781;28;20042;-78
2024/03/11 09:23:48;;;;;;;27.23;21.10;;;12.60;66.60;;;;;;4975970;28;20095;-78
2024/03/11 09:26:33;;;;;;;26.05;20.38;;;12.70;66.60;;;;;;4967268;28;20095;-80
2024/03/11 09:29:22;;;;;;;26.55;20.95;;;12.70;66.50;;;;;;4967219;28;20093;-81
2024/03/11 09:32:06;;;;;;;26.70;19.55;;;12.70;66.40;;;;;;4970672;28;20106;-78
2024/03/11 09:34:50;;;;;;;25.13;19.88;;;12.70;66.30;;;;;;4963546;28;20048;-78
2024/03/11 09:37:35;;;;;;;24.92;20.17;;;12.80;66.30;;;;;;4963059;28;20049;-77
2024/03/11 09:40:23;;;;;;;29.02;20.85;;;12.80;66.20;;;;;;4964751;28;20522;-78
2024/03/11 09:43:11;;;;;;;23.95;19.92;;;12.80;66.20;;;;;;4966128;28;20053;-78
2024/03/11 09:45:56;;;;;;;22.33;19.13;;;12.80;66.10;;;;;;4956032;28;20399;-78
2024/03/11 09:48:42;;;;;;;22.88;18.50;;;12.80;66.00;;;;;;4961009;28;20114;-78
2024/03/11 09:51:27;;;;;;;22.52;18.70;;;12.80;66.00;;;;;;4975778;28;20045;-77
2024/03/11 09:54:16;;;;;;;22.55;19.23;;;12.80;65.90;;;;;;4968966;28;20122;-82
2024/03/11 09:57:06;;;;;;;24.42;18.52;;;12.80;65.90;;;;;;4970990;28;20129;-77
2024/03/11 09:59:54;;;;;;;22.98;18.25;;;12.80;65.80;;;;;;4969899;28;20092;-78
2024/03/11 10:02:42;;;;;;;23.30;19.40;;;12.80;65.80;;;;;;4973479;28;20213;-79
2024/03/11 10:05:33;;;;;;;24.02;17.52;;;12.80;65.80;;;;;;4962567;28;20061;-78
2024/03/11 10:08:21;;;;;;;23.40;18.60;;;12.80;65.70;;;;;;4978569;28;20568;-78
2024/03/11 10:11:21;;;;;;;22.52;18.55;;;12.90;65.80;;;;;;4987842;28;20045;-79
2024/03/11 10:14:22;;;;;;;24.13;17.95;;;12.80;65.60;;;;;;4961978;28;20100;-78
2024/03/11 10:17:20;;;;;;;22.65;17.67;;;12.90;65.80;;;;;;4977819;28;20046;-78
2024/03/11 10:20:14;;;;;;;24.40;18.67;;;12.90;65.70;;;;;;4973229;28;20048;-78
2024/03/11 10:23:09;;;;;;;24.80;18.80;;;12.90;65.70;;;;;;4978489;28;20185;-78
2024/03/11 10:26:17;;;;;;;20.70;17.08;;;12.90;65.60;;;;;;4980798;28;20037;-78
2024/03/11 10:29:02;;;;;;;20.23;17.65;;;12.90;65.50;;;;;;4971426;28;20096;-78
2024/03/11 10:31:47;;;;;;;23.35;17.90;;;12.90;65.40;;;;;;4969467;28;20121;-78
2024/03/11 10:34:53;;;;;;;22.33;18.15;;;12.90;65.30;;;;;;4973575;28;20479;-78
2024/03/11 10:37:39;;;;;;;20.48;16.90;;;12.90;65.20;;;;;;4969654;28;20045;-78
2024/03/11 10:40:32;;;;;;;20.63;16.30;;;12.90;65.20;;;;;;4980902;28;20053;-78
2024/03/11 10:43:21;;;;;;;;;;;12.90;65.20;;;;;;4973387;28;20058;-78
2024/03/11 10:46:18;;;;;;;20.50;17.15;;;13.00;65.30;;;;;;4977883;28;20232;-78
2024/03/11 10:49:04;;;;;;;21.52;17.63;;;13.00;65.20;;;;;;4972727;28;20494;-78
2024/03/11 10:51:52;;;;;;;20.30;17.35;;;12.90;65.00;;;;;;4970387;28;20066;-78
2024/03/11 10:54:39;;;;;;;21.23;16.98;;;12.90;65.00;;;;;;4975379;28;20046;-79
2024/03/11 10:57:43;;;;;;;21.55;17.67;;;13.00;65.10;;;;;;4980097;28;20414;-79
2024/03/11 11:00:34;;;;;;;19.95;16.75;;;12.90;64.90;;;;;;4984049;28;20559;-79
2024/03/11 11:03:21;;;;;;;20.35;18.13;;;12.90;64.80;;;;;;4975052;28;20161;-79
2024/03/11 11:06:14;;;;;;;20.50;17.00;;;13.00;65.00;;;;;;4964456;28;20544;-79
2024/03/11 11:09:10;;;;;;;;;;;13.00;64.90;;;;;;4963667;28;20049;-77
2024/03/11 11:11:56;;;;;;;22.50;17.25;;;13.00;64.80;;;;;;4978527;28;20446;-78
2024/03/11 11:14:41;;;;;;;21.02;18.10;;;13.10;64.90;;;;;;4959483;28;20201;-78
2024/03/11 11:17:28;;;;;;;19.83;16.77;;;13.10;64.70;;;;;;4960761;28;20806;-78
2024/03/11 11:20:30;;;;;;;21.95;17.95;;;13.10;64.60;;;;;;4969987;28;20145;-78
2024/03/11 11:23:27;;;;;;;22.40;18.42;;;13.20;64.70;;;;;;4972905;28;20073;-79
2024/03/11 11:26:11;;;;;;;23.67;17.88;;;13.20;64.60;;;;;;4960523;28;20389;-80
2024/03/11 11:29:02;;;;;;;20.75;16.70;;;13.20;64.40;;;;;;4965592;28;20065;-79
2024/03/11 11:32:03;;;;;;;21.20;16.88;;;13.30;64.50;;;;;;4971593;28;20155;-80
2024/03/11 11:34:49;;;;;;;19.80;17.10;;;13.30;64.40;;;;;;4966879;28;20351;-79
2024/03/11 11:37:36;;;;;;;21.35;17.13;;;13.40;64.50;;;;;;4972227;28;20100;-79
2024/03/11 11:40:29;;;;;;;19.83;17.73;;;13.40;64.40;;;;;;4963288;28;20064;-80
2024/03/11 11:43:24;;;;;;;20.50;17.23;;;13.50;64.40;;;;;;4967352;28;20045;-80
2024/03/11 11:46:11;;;;;;;21.17;16.05;;;13.50;64.30;;;;;;4969019;28;20108;-80
2024/03/11 11:49:34;;;;;;;22.83;16.80;;;13.60;64.30;;;;;;4968181;28;20061;-79
2024/03/11 11:52:20;;;;;;;18.95;16.20;;;13.70;64.20;;;;;;4933229;29;20053;-80
2024/03/11 11:55:07;;;;;;;23.00;18.20;;;13.80;64.30;;;;;;4929923;28;20593;-79
2024/03/11 11:58:07;;;;;;;19.77;15.75;;;13.90;64.30;;;;;;4971535;28;20118;-79
2024/03/11 12:01:00;;;;;;;19.60;15.98;;;14.10;64.20;;;;;;4975262;28;20073;-80
2024/03/11 12:03:45;;;;;;;19.52;16.10;;;14.30;64.20;;;;;;4962686;28;20079;-79
2024/03/11 12:06:29;;;;;;;19.30;15.77;;;14.40;64.00;;;;;;4977908;28;20577;-79
2024/03/11 12:09:16;;;;;;;16.70;14.48;;;14.60;64.00;;;;;;4974458;28;20041;-78
2024/03/11 12:12:00;;;;;;;19.98;15.38;;;14.70;63.70;;;;;;4972383;28;20053;-78
2024/03/11 12:14:50;;;;;;;22.15;17.52;;;14.90;63.80;;;;;;4966666;28;20054;-78
2024/03/11 12:17:35;;;;;;;19.98;16.55;;;15.00;63.60;;;;;;4982997;28;20097;-78
2024/03/11 12:20:25;;;;;;;17.50;15.05;;;15.10;63.50;;;;;;4977893;28;20554;-80
2024/03/11 12:23:09;;;;;;;16.63;14.85;;;15.20;63.40;;;;;;4971746;28;20549;-80
2024/03/11 12:25:56;;;;;;;16.08;14.13;;;15.20;63.20;;;;;;4972050;28;20407;-78
2024/03/11 12:29:07;;;;;;;17.05;14.45;;;15.30;63.10;;;;;;4964240;28;20420;-78
2024/03/11 12:31:56;;;;;;;15.82;13.93;;;15.40;63.00;;;;;;4971458;28;20103;-78
2024/03/11 12:34:42;;;;;;;17.00;14.80;;;15.40;62.90;;;;;;4966602;28;20129;-78
2024/03/11 12:37:28;;;;;;;17.98;14.98;;;15.50;62.90;;;;;;4969764;28;20453;-79
2024/03/11 12:40:18;;;;;;;18.95;14.48;;;15.60;62.80;;;;;;4958567;28;20045;-79
2024/03/11 12:43:23;;;;;;;17.80;15.27;;;15.60;62.70;;;;;;4976704;28;20092;-78
2024/03/11 12:46:10;;;;;;;15.65;14.07;;;15.70;62.50;;;;;;4978312;28;20153;-79
2024/03/11 12:48:55;;;;;;;17.63;14.90;;;15.80;62.50;;;;;;4970370;28;20623;-78
2024/03/11 12:51:41;;;;;;;17.92;14.50;;;15.90;62.50;;;;;;4973353;28;20049;-78
2024/03/11 12:54:26;;;;;;;16.25;13.90;;;15.90;62.30;;;;;;4978656;28;20053;-79
2024/03/11 12:57:21;;;;;;;15.40;13.70;;;16.00;62.20;;;;;;4964611;28;20239;-78
2024/03/11 13:00:07;;;;;;;16.55;14.45;;;16.10;62.00;;;;;;4966558;28;20132;-78
2024/03/11 13:02:51;;;;;;;16.33;14.63;;;16.20;61.90;;;;;;4969182;28;20058;-78
2024/03/11 13:05:36;;;;;;;17.05;13.40;;;16.30;61.80;;;;;;4975061;28;20089;-78
2024/03/11 13:08:21;;;;;;;15.35;13.75;;;16.40;61.70;;;;;;4964767;28;20050;-79
2024/03/11 13:11:08;;;;;;;16.02;14.32;;;16.50;61.60;;;;;;4973739;28;20081;-78
2024/03/11 13:13:54;;;;;;;15.05;13.43;;;16.60;61.50;;;;;;4958762;28;20214;-78
2024/03/11 13:16:40;;;;;;;14.80;13.30;;;16.70;61.40;;;;;;4951933;28;20577;-79
2024/03/11 13:19:27;;;;;;;16.33;13.18;;;16.70;61.10;;;;;;4970741;28;20049;-78
2024/03/11 13:22:18;;;;;;;13.85;12.45;;;16.80;61.10;;;;;;4966770;28;20054;-79
2024/03/11 13:25:05;;;;;;;15.32;13.15;;;16.80;61.40;;;;;;4968834;28;20444;-78
2024/03/11 13:27:51;;;;;;;13.73;12.25;;;16.90;60.70;;;;;;4965509;28;20530;-77
2024/03/11 13:30:39;;;;;;;14.98;13.23;;;17.00;60.70;;;;;;4972499;28;20494;-79
2024/03/11 13:33:24;;;;;;;14.38;11.95;;;17.10;60.50;;;;;;4975539;28;20113;-77
2024/03/11 13:36:08;;;;;;;13.48;12.15;;;17.10;60.20;;;;;;4973723;28;20525;-77
2024/03/11 13:38:54;;;;;;;13.05;11.68;;;17.20;60.10;;;;;;4978865;28;20293;-81
2024/03/11 13:41:39;;;;;;;14.05;12.50;;;17.20;59.90;;;;;;4971024;28;20053;-81
2024/03/11 13:44:24;;;;;;;14.10;12.27;;;17.30;59.90;;;;;;4968453;28;20367;-80
2024/03/11 13:47:13;;;;;;;13.98;12.50;;;17.30;59.60;;;;;;4988364;28;20038;-79
2024/03/11 13:49:58;;;;;;;14.73;11.60;;;17.30;59.20;;;;;;4970346;28;20079;-79
2024/03/11 13:52:43;;;;;;;13.70;12.20;;;17.40;59.30;;;;;;4966317;28;20419;-79
2024/03/11 13:55:28;;;;;;;13.48;12.02;;;17.50;59.20;;;;;;4982814;28;20336;-79
2024/03/11 13:58:13;;;;;;;13.63;11.18;;;17.50;58.90;;;;;;4966982;28;20053;-78
2024/03/11 14:00:58;;;;;;;13.63;12.23;;;17.60;58.90;;;;;;4972923;28;20418;-78
2024/03/11 14:03:42;;;;;;;12.27;11.05;;;17.70;58.90;;;;;;4973992;28;20410;-80
2024/03/11 14:06:30;;;;;;;13.15;11.75;;;17.80;58.80;;;;;;4962431;28;20045;-79